createdAt,value
2019-04-30T00:00:20.357Z,5.85
2019-04-30T00:03:41.594Z,5.81
2019-04-30T00:06:45.606Z,5.70
2019-04-30T00:09:54.058Z,5.65
2019-04-30T00:12:55.531Z,5.66
2019-04-30T00:16:01.607Z,5.54
2019-04-30T00:19:06.156Z,5.56
2019-04-30T00:22:10.409Z,5.52
2019-04-30T00:25:15.293Z,5.37
2019-04-30T00:28:19.540Z,5.40
2019-04-30T00:31:25.679Z,5.46
2019-04-30T00:34:30.941Z,5.37
2019-04-30T00:37:35.258Z,5.36
2019-04-30T00:40:39.171Z,5.38
2019-04-30T00:43:49.308Z,5.34
2019-04-30T00:46:48.292Z,5.24
2019-04-30T00:49:56.323Z,5.27
2019-04-30T00:52:57.898Z,5.17
2019-04-30T00:56:01.951Z,5.18
2019-04-30T00:59:07.181Z,5.07
2019-04-30T01:02:31.923Z,5.18
2019-04-30T01:05:33.008Z,5.10
2019-04-30T01:08:36.682Z,5.03
2019-04-30T01:11:46.766Z,5.03
2019-04-30T01:14:45.999Z,4.99
2019-04-30T01:17:53.609Z,4.97
2019-04-30T01:20:55.560Z,4.90
2019-04-30T01:23:59.579Z,4.87
2019-04-30T01:27:06.718Z,4.91
2019-04-30T01:30:13.258Z,5.03
2019-04-30T01:33:15.704Z,4.94
2019-04-30T01:36:19.397Z,4.79
2019-04-30T01:39:23.770Z,4.88
2019-04-30T01:42:28.566Z,4.77
2019-04-30T01:45:32.505Z,4.75
2019-04-30T01:48:36.177Z,4.70
2019-04-30T01:51:39.860Z,4.70
2019-04-30T01:54:43.556Z,4.67
2019-04-30T01:57:59.237Z,4.68
2019-04-30T02:01:06.967Z,4.74
2019-04-30T02:04:10.656Z,4.63
2019-04-30T02:07:14.363Z,4.58
2019-04-30T02:10:18.770Z,4.58
2019-04-30T02:13:22.434Z,4.50
2019-04-30T02:16:26.133Z,4.52
2019-04-30T02:19:31.232Z,4.44
2019-04-30T02:22:34.969Z,4.46
2019-04-30T02:25:39.916Z,4.42
2019-04-30T02:28:43.728Z,4.39
2019-04-30T02:31:50.114Z,4.43
2019-04-30T02:35:01.915Z,4.39
2019-04-30T02:38:12.129Z,4.31
2019-04-30T02:41:19.263Z,4.33
2019-04-30T02:44:24.236Z,4.41
2019-04-30T02:47:30.894Z,4.35
2019-04-30T02:50:35.743Z,4.26
2019-04-30T02:54:23.699Z,4.18
2019-04-30T02:57:25.169Z,4.21
2019-04-30T03:00:32.544Z,4.15
2019-04-30T03:03:34.295Z,4.13
2019-04-30T03:06:40.285Z,4.20
2019-04-30T03:09:44.390Z,4.23
2019-04-30T03:12:49.888Z,4.09
2019-04-30T03:15:53.497Z,4.02
2019-04-30T03:19:19.661Z,4.12
2019-04-30T03:22:25.790Z,4.08
2019-04-30T03:25:29.862Z,4.01
2019-04-30T03:28:34.080Z,4.07
2019-04-30T03:31:42.852Z,4.04
2019-04-30T03:34:43.562Z,4.04
2019-04-30T03:37:49.550Z,3.92
2019-04-30T03:40:52.644Z,3.96
2019-04-30T03:43:56.612Z,3.99
2019-04-30T03:47:00.306Z,3.95
2019-04-30T03:50:04.395Z,3.96
2019-04-30T03:53:10.456Z,3.91
2019-04-30T03:56:13.910Z,3.91
2019-04-30T03:59:19.925Z,4.01
2019-04-30T04:02:40.709Z,4.00
2019-04-30T04:05:51.784Z,4.11
2019-04-30T04:09:00.672Z,4.07
2019-04-30T04:12:23.265Z,3.98
2019-04-30T04:15:26.967Z,4.10
2019-04-30T04:18:30.643Z,4.03
2019-04-30T04:21:34.334Z,4.09
2019-04-30T04:24:40.096Z,4.11
2019-04-30T04:27:43.454Z,4.03
2019-04-30T04:30:50.293Z,4.11
2019-04-30T04:33:52.989Z,4.21
2019-04-30T04:36:56.692Z,4.22
2019-04-30T04:40:00.407Z,4.27
2019-04-30T04:43:04.193Z,4.42
2019-04-30T04:46:09.232Z,4.43
2019-04-30T04:49:13.147Z,4.44
2019-04-30T04:52:17.239Z,4.53
2019-04-30T04:55:22.248Z,4.54
2019-04-30T04:58:26.491Z,4.57
2019-04-30T05:01:30.206Z,4.71
2019-04-30T05:04:34.168Z,4.76
2019-04-30T05:07:39.975Z,4.85
2019-04-30T05:10:43.895Z,4.92
2019-04-30T05:13:48.995Z,5.02
2019-04-30T05:16:53.029Z,5.19
2019-04-30T05:19:58.678Z,5.28
2019-04-30T05:23:02.574Z,5.43
2019-04-30T05:26:08.453Z,5.58
2019-04-30T05:29:12.037Z,5.72
2019-04-30T05:32:15.816Z,5.81
2019-04-30T05:35:19.564Z,6.06
2019-04-30T05:38:23.266Z,6.13
2019-04-30T05:41:28.796Z,6.23
2019-04-30T05:44:32.453Z,6.33
2019-04-30T05:47:36.156Z,6.64
2019-04-30T05:50:39.870Z,6.67
2019-04-30T05:53:43.570Z,6.98
2019-04-30T05:56:47.279Z,7.17
2019-04-30T05:59:51.267Z,7.47
2019-04-30T06:02:55.323Z,7.62
2019-04-30T06:05:59.055Z,7.79
2019-04-30T06:09:14.766Z,7.83
2019-04-30T06:12:36.418Z,8.07
2019-04-30T06:15:48.991Z,8.15
2019-04-30T06:18:52.859Z,8.23
2019-04-30T06:22:05.815Z,8.26
2019-04-30T06:25:02.002Z,8.60
2019-04-30T06:28:05.772Z,8.77
2019-04-30T06:31:09.552Z,8.64
2019-04-30T06:34:13.589Z,8.77
2019-04-30T06:37:19.297Z,8.81
2019-04-30T06:40:23.322Z,9.04
2019-04-30T06:43:28.755Z,9.18
2019-04-30T06:46:32.809Z,9.10
2019-04-30T06:49:39.093Z,9.33
2019-04-30T06:52:53.756Z,9.36
2019-04-30T06:55:49.278Z,9.52
2019-04-30T06:58:53.416Z,9.69
2019-04-30T07:01:58.964Z,9.77
2019-04-30T07:05:02.749Z,9.92
2019-04-30T07:08:36.391Z,10.00
2019-04-30T07:11:33.635Z,10.05
2019-04-30T07:14:39.995Z,10.30
2019-04-30T07:17:43.090Z,10.28
2019-04-30T07:20:48.499Z,10.33
2019-04-30T07:23:52.540Z,10.60
2019-04-30T07:27:01.030Z,10.70
2019-04-30T07:30:39.569Z,10.87
2019-04-30T07:33:43.394Z,10.94
2019-04-30T07:36:55.149Z,10.85
2019-04-30T07:39:52.644Z,11.06
2019-04-30T07:42:58.932Z,11.24
2019-04-30T07:46:02.284Z,11.25
2019-04-30T07:49:05.988Z,11.40
2019-04-30T07:52:11.585Z,11.52
2019-04-30T07:55:15.392Z,11.74
2019-04-30T07:58:20.420Z,12.04
2019-04-30T08:01:24.472Z,12.11
2019-04-30T08:05:02.377Z,12.16
2019-04-30T08:08:20.126Z,12.36
2019-04-30T08:11:23.120Z,12.46
2019-04-30T08:14:18.488Z,12.57
2019-04-30T08:17:22.723Z,12.76
2019-04-30T08:20:26.433Z,12.96
2019-04-30T08:23:34.864Z,13.07
2019-04-30T08:26:35.660Z,13.26
2019-04-30T08:29:39.565Z,13.21
2019-04-30T08:32:43.336Z,13.50
2019-04-30T08:35:47.312Z,13.73
2019-04-30T08:38:51.032Z,13.86
2019-04-30T08:41:55.005Z,14.01
2019-04-30T08:44:58.876Z,14.08
2019-04-30T08:48:02.588Z,14.19
2019-04-30T08:51:06.458Z,14.36
2019-04-30T08:54:10.163Z,14.65
2019-04-30T08:57:13.881Z,14.53
2019-04-30T09:00:19.489Z,14.40
2019-04-30T09:03:23.514Z,14.71
2019-04-30T09:06:28.956Z,14.78
2019-04-30T09:09:33.336Z,14.89
2019-04-30T09:12:37.056Z,15.05
2019-04-30T09:15:40.764Z,15.25
2019-04-30T09:18:44.485Z,15.56
2019-04-30T09:21:48.888Z,15.37
2019-04-30T09:24:52.776Z,15.57
2019-04-30T09:27:56.487Z,16.09
2019-04-30T09:31:00.184Z,15.75
2019-04-30T09:34:14.336Z,16.01
2019-04-30T09:37:09.421Z,16.46
2019-04-30T09:40:17.957Z,16.34
2019-04-30T09:43:18.913Z,16.48
2019-04-30T09:46:27.047Z,16.61
2019-04-30T09:49:29.435Z,16.64
2019-04-30T09:52:35.903Z,16.29
2019-04-30T09:55:40.542Z,16.77
2019-04-30T09:58:44.385Z,17.01
2019-04-30T10:01:48.220Z,17.35
2019-04-30T10:04:52.351Z,17.96
2019-04-30T10:07:56.593Z,18.24
2019-04-30T10:11:25.310Z,18.24
2019-04-30T10:14:29.017Z,19.16
2019-04-30T10:17:40.628Z,18.65
2019-04-30T10:20:45.119Z,18.86
2019-04-30T10:23:49.929Z,18.80
2019-04-30T10:26:53.722Z,19.48
2019-04-30T10:29:59.265Z,20.42
2019-04-30T10:33:03.017Z,20.43
2019-04-30T10:36:06.795Z,20.86
2019-04-30T10:39:11.092Z,21.52
2019-04-30T10:42:14.756Z,21.80
2019-04-30T10:45:18.811Z,21.67
2019-04-30T10:48:22.508Z,22.40
2019-04-30T10:51:26.452Z,23.07
2019-04-30T10:54:30.484Z,23.00
2019-04-30T10:57:34.199Z,22.91
2019-04-30T11:00:40.232Z,21.68
2019-04-30T11:03:43.914Z,21.42
2019-04-30T11:06:47.767Z,21.51
2019-04-30T11:09:51.867Z,22.38
2019-04-30T11:12:55.551Z,21.97
2019-04-30T11:16:11.877Z,23.01
2019-04-30T11:19:05.069Z,23.24
2019-04-30T11:22:09.083Z,23.62
2019-04-30T11:25:13.394Z,24.63
2019-04-30T11:28:17.805Z,24.64
2019-04-30T11:31:46.490Z,25.54
2019-04-30T11:34:50.406Z,25.02
2019-04-30T11:37:54.186Z,25.29
2019-04-30T11:40:59.143Z,25.16
2019-04-30T11:44:02.839Z,26.20
2019-04-30T11:47:29.124Z,26.20
2019-04-30T11:50:33.153Z,26.25
2019-04-30T11:53:38.920Z,26.04
2019-04-30T11:56:42.426Z,25.35
2019-04-30T11:59:46.598Z,26.52
2019-04-30T12:02:52.807Z,26.43
2019-04-30T12:05:55.766Z,26.86
2019-04-30T12:09:09.683Z,26.66
2019-04-30T12:12:13.383Z,26.68
2019-04-30T12:15:19.101Z,26.80
2019-04-30T12:18:22.904Z,26.99
2019-04-30T12:21:26.870Z,26.61
2019-04-30T12:24:30.577Z,26.96
2019-04-30T12:27:34.647Z,24.72
2019-04-30T12:30:39.130Z,24.77
2019-04-30T12:33:42.964Z,24.50
2019-04-30T12:36:46.640Z,25.78
2019-04-30T12:39:50.335Z,25.42
2019-04-30T12:42:54.028Z,23.91
2019-04-30T12:46:04.895Z,23.96
2019-04-30T12:49:11.454Z,25.10
2019-04-30T12:52:19.970Z,25.73
2019-04-30T12:55:41.215Z,25.23
2019-04-30T12:58:44.914Z,25.05
2019-04-30T13:01:49.552Z,24.35
2019-04-30T13:04:53.288Z,24.03
2019-04-30T13:07:59.915Z,23.23
2019-04-30T13:11:03.355Z,22.35
2019-04-30T13:14:10.111Z,22.11
2019-04-30T13:17:12.855Z,22.03
2019-04-30T13:20:20.850Z,21.73
2019-04-30T13:23:22.545Z,21.68
2019-04-30T13:26:26.249Z,21.13
2019-04-30T13:29:35.106Z,21.15
2019-04-30T13:32:45.462Z,21.16
2019-04-30T13:35:49.239Z,20.93
2019-04-30T13:39:01.923Z,20.98
2019-04-30T13:42:17.667Z,21.21
2019-04-30T13:45:15.531Z,21.18
2019-04-30T13:48:19.907Z,21.28
2019-04-30T13:51:23.608Z,21.61
2019-04-30T13:54:27.324Z,21.19
2019-04-30T13:57:31.020Z,20.92
2019-04-30T14:00:34.793Z,21.58
2019-04-30T14:03:44.756Z,21.80
2019-04-30T14:07:06.361Z,22.03
2019-04-30T14:10:10.488Z,22.42
2019-04-30T14:13:14.299Z,22.10
2019-04-30T14:16:18.073Z,22.58
2019-04-30T14:19:21.861Z,22.70
2019-04-30T14:22:25.561Z,22.00
2019-04-30T14:25:29.445Z,21.71
2019-04-30T14:28:33.507Z,21.49
2019-04-30T14:31:38.810Z,21.54
2019-04-30T14:34:43.109Z,21.18
2019-04-30T14:37:46.970Z,21.63
2019-04-30T14:40:51.665Z,21.45
2019-04-30T14:44:02.160Z,21.13
2019-04-30T14:47:14.218Z,21.07
2019-04-30T14:50:19.568Z,20.87
2019-04-30T14:53:32.592Z,20.48
2019-04-30T14:56:41.418Z,20.31
2019-04-30T15:00:06.031Z,20.39
2019-04-30T15:03:11.670Z,20.28
2019-04-30T15:06:15.460Z,20.16
2019-04-30T15:09:20.041Z,20.02
2019-04-30T15:12:23.820Z,19.62
2019-04-30T15:15:29.236Z,19.43
2019-04-30T15:18:33.283Z,19.36
2019-04-30T15:21:36.999Z,19.37
2019-04-30T15:24:40.788Z,19.29
2019-04-30T15:27:47.642Z,19.17
2019-04-30T15:30:50.719Z,19.11
2019-04-30T15:34:03.063Z,19.11
2019-04-30T15:37:18.518Z,19.13
2019-04-30T15:40:11.828Z,18.90
2019-04-30T15:43:15.535Z,18.83
2019-04-30T15:46:19.314Z,18.83
2019-04-30T15:49:23.068Z,18.56
2019-04-30T15:52:28.797Z,18.49
2019-04-30T15:55:32.257Z,18.60
2019-04-30T15:58:38.899Z,18.62
2019-04-30T16:01:43.760Z,18.66
2019-04-30T16:05:06.493Z,18.67
2019-04-30T16:08:41.760Z,18.70
2019-04-30T16:11:54.124Z,18.67
2019-04-30T16:14:57.824Z,18.57
2019-04-30T16:18:02.119Z,18.35
2019-04-30T16:21:05.819Z,18.25
2019-04-30T16:24:09.772Z,18.27
2019-04-30T16:27:13.471Z,17.94
2019-04-30T16:30:19.553Z,17.96
2019-04-30T16:33:23.416Z,17.90
2019-04-30T16:36:29.036Z,17.86
2019-04-30T16:39:32.825Z,17.65
2019-04-30T16:42:38.918Z,17.79
2019-04-30T16:45:42.605Z,17.71
2019-04-30T16:48:46.635Z,17.73
2019-04-30T16:51:50.468Z,17.59
2019-04-30T16:54:54.181Z,17.41
2019-04-30T16:57:58.548Z,17.32
2019-04-30T17:01:04.053Z,17.30
2019-04-30T17:04:16.180Z,17.11
2019-04-30T17:07:30.895Z,17.20
2019-04-30T17:10:41.051Z,17.16
2019-04-30T17:13:51.733Z,16.99
2019-04-30T17:16:55.432Z,16.92
2019-04-30T17:19:59.141Z,16.79
2019-04-30T17:23:02.845Z,16.89
2019-04-30T17:26:06.881Z,16.67
2019-04-30T17:29:10.589Z,16.73
2019-04-30T17:32:14.292Z,16.56
2019-04-30T17:35:19.033Z,16.64
2019-04-30T17:38:22.928Z,16.52
2019-04-30T17:41:26.637Z,16.46
2019-04-30T17:44:30.350Z,16.40
2019-04-30T17:47:34.310Z,16.40
2019-04-30T17:50:39.619Z,16.29
2019-04-30T17:54:01.368Z,16.13
2019-04-30T17:57:05.413Z,16.11
2019-04-30T18:00:18.925Z,16.11
2019-04-30T18:03:18.959Z,16.05
2019-04-30T18:06:22.873Z,16.07
2019-04-30T18:09:26.677Z,15.70
2019-04-30T18:12:30.805Z,15.66
2019-04-30T18:15:34.525Z,15.49
2019-04-30T18:18:51.214Z,15.57
2019-04-30T18:21:59.678Z,15.51
2019-04-30T18:25:20.720Z,15.51
2019-04-30T18:28:24.705Z,15.35
2019-04-30T18:31:29.811Z,15.32
2019-04-30T18:34:33.615Z,15.36
2019-04-30T18:37:38.708Z,15.32
2019-04-30T18:40:42.517Z,15.23
2019-04-30T18:43:48.736Z,15.03
2019-04-30T18:46:52.758Z,14.94
2019-04-30T18:49:56.465Z,14.80
2019-04-30T18:53:02.708Z,14.65
2019-04-30T18:56:09.960Z,14.62
2019-04-30T18:59:11.945Z,14.55
2019-04-30T19:02:15.715Z,14.23
2019-04-30T19:05:25.730Z,14.36
2019-04-30T19:08:35.040Z,14.14
2019-04-30T19:11:54.357Z,14.09
2019-04-30T19:15:08.149Z,13.96
2019-04-30T19:18:25.922Z,13.73
2019-04-30T19:21:30.108Z,13.79
2019-04-30T19:24:33.808Z,13.75
2019-04-30T19:27:37.514Z,13.68
2019-04-30T19:30:41.374Z,13.55
2019-04-30T19:33:45.391Z,13.42
2019-04-30T19:36:49.351Z,13.39
2019-04-30T19:39:53.132Z,13.27
2019-04-30T19:42:56.845Z,13.23
2019-04-30T19:46:00.835Z,13.17
2019-04-30T19:49:04.718Z,13.06
2019-04-30T19:52:11.125Z,12.90
2019-04-30T19:55:13.937Z,12.91
2019-04-30T19:58:27.753Z,12.99
2019-04-30T20:01:23.070Z,12.87
2019-04-30T20:04:33.048Z,12.71
2019-04-30T20:07:32.217Z,12.79
2019-04-30T20:10:35.942Z,12.59
2019-04-30T20:13:40.524Z,12.43
2019-04-30T20:16:44.211Z,12.41
2019-04-30T20:19:48.926Z,12.40
2019-04-30T20:22:52.981Z,12.36
2019-04-30T20:25:56.678Z,12.28
2019-04-30T20:29:00.715Z,12.19
2019-04-30T20:32:04.483Z,12.19
2019-04-30T20:35:09.756Z,12.15
2019-04-30T20:38:22.115Z,12.27
2019-04-30T20:41:28.611Z,12.11
2019-04-30T20:44:32.396Z,12.06
2019-04-30T20:47:36.097Z,12.17
2019-04-30T20:50:39.809Z,11.97
2019-04-30T20:53:43.516Z,11.98
2019-04-30T20:56:48.347Z,11.95
2019-04-30T20:59:52.902Z,11.78
2019-04-30T21:02:56.685Z,11.77
2019-04-30T21:06:00.692Z,11.53
2019-04-30T21:09:06.150Z,11.27
2019-04-30T21:12:09.845Z,11.46
2019-04-30T21:15:13.933Z,11.42
2019-04-30T21:18:19.387Z,11.30
2019-04-30T21:21:23.109Z,11.06
2019-04-30T21:24:26.819Z,11.20
2019-04-30T21:27:30.632Z,11.09
2019-04-30T21:30:34.407Z,10.97
2019-04-30T21:33:43.124Z,10.89
2019-04-30T21:36:46.860Z,10.82
2019-04-30T21:39:50.587Z,10.91
2019-04-30T21:42:54.284Z,10.84
2019-04-30T21:45:59.411Z,10.75
2019-04-30T21:49:03.189Z,10.67
2019-04-30T21:52:06.887Z,10.82
2019-04-30T21:55:12.499Z,10.40
2019-04-30T21:58:16.285Z,10.80
2019-04-30T22:01:24.708Z,10.73
2019-04-30T22:04:28.513Z,10.77
2019-04-30T22:07:32.308Z,10.64
2019-04-30T22:10:36.340Z,10.80
2019-04-30T22:13:43.106Z,10.74
2019-04-30T22:16:46.446Z,10.53
2019-04-30T22:19:51.711Z,10.57
2019-04-30T22:22:55.612Z,10.55
2019-04-30T22:25:59.949Z,10.62
2019-04-30T22:29:03.857Z,10.70
2019-04-30T22:32:09.238Z,10.84
2019-04-30T22:35:31.276Z,10.68
2019-04-30T22:38:39.132Z,10.76
2019-04-30T22:41:42.951Z,10.53
2019-04-30T22:44:46.843Z,10.54
2019-04-30T22:47:50.579Z,10.69
2019-04-30T22:50:54.305Z,10.83
2019-04-30T22:53:58.109Z,10.74
2019-04-30T22:57:01.816Z,10.81
2019-04-30T23:00:09.704Z,10.66
2019-04-30T23:03:20.090Z,10.55
2019-04-30T23:06:24.230Z,10.69
2019-04-30T23:09:27.933Z,10.81
2019-04-30T23:12:31.714Z,10.56
2019-04-30T23:15:36.037Z,10.68
2019-04-30T23:18:39.736Z,10.69
2019-04-30T23:21:43.476Z,10.62
2019-04-30T23:24:47.472Z,10.68
2019-04-30T23:27:51.277Z,10.47
2019-04-30T23:30:55.060Z,10.27
2019-04-30T23:33:58.818Z,10.30
2019-04-30T23:37:02.890Z,10.42
2019-04-30T23:40:31.054Z,10.41
2019-04-30T23:43:34.775Z,10.41
2019-04-30T23:46:38.508Z,10.37
2019-04-30T23:49:42.289Z,10.35
2019-04-30T23:52:46.611Z,10.32
2019-04-30T23:55:50.382Z,10.38
2019-04-30T23:58:54.205Z,10.35
